McAlpin, West Virginia
Current Conditions -  °F | °C
As of 3:51 AM on Friday 19 Dec 2014 (Local Time) from KBKW Reporting Station
Overcast Overcast  
Wind Chill: 21°   Ceiling: 1000
Heat Index: 26°   Visibility: 10mi
Dew Point: 21°   Wind: 5mph
Humidity: 81%   Direction: 310°NW
Pressure: 30.11"   Gusts: NA
Location:  37.6919°N, 81.2784°W
Report Text: KBKW 190851Z AUTO 31004KT 10SM OVC010 M03/M06 A3011 RMK AO2 SLP225 T10331061 57001
Loading
Personal Weather Stations






























Interactive Weather Map New forecast layout! Learn more

10-Day Weather Forecast

Advertisements
Track Severe Weather on mobile